createdAt,value
2023-02-11T00:02:46.138Z,101556.03
2023-02-11T00:07:49.756Z,101540.47
2023-02-11T00:12:51.515Z,101536.34
2023-02-11T00:17:53.775Z,101534.53
2023-02-11T00:22:55.474Z,101526.13
2023-02-11T00:27:57.511Z,101510.13
2023-02-11T00:32:59.327Z,101503.06
2023-02-11T00:38:01.014Z,101497.47
2023-02-11T00:43:02.959Z,101492.97
2023-02-11T00:48:04.671Z,101486.16
2023-02-11T00:53:06.464Z,101461.25
2023-02-11T00:58:08.241Z,101441.34
2023-02-11T01:03:10.388Z,101430.41
2023-02-11T01:08:12.287Z,101410.25
2023-02-11T01:13:13.894Z,101411.28
2023-02-11T01:18:15.560Z,101425.03
2023-02-11T01:23:17.203Z,101435.47
2023-02-11T01:28:27.733Z,101441.66
2023-02-11T01:33:29.952Z,101446.13
2023-02-11T01:38:32.052Z,101444.56
2023-02-11T01:43:42.451Z,101424.47
2023-02-11T01:48:47.784Z,101418.44
2023-02-11T01:54:16.241Z,101416.13
2023-02-11T01:59:27.666Z,101413.69
2023-02-11T02:04:33.261Z,101402.63
2023-02-11T02:09:40.418Z,101404.56
2023-02-11T02:14:42.266Z,101406.41
2023-02-11T02:20:33.103Z,101405.72
2023-02-11T02:25:52.770Z,101410.72
2023-02-11T02:31:15.464Z,101408.47
2023-02-11T02:36:59.299Z,101389.44
2023-02-11T02:42:01.722Z,101373.25
2023-02-11T02:47:03.471Z,101367.94
2023-02-11T02:52:10.667Z,101364.81
2023-02-11T02:57:12.154Z,101361.56
2023-02-11T03:02:39.622Z,101366.59
2023-02-11T03:08:09.813Z,101366.78
2023-02-11T03:13:13.340Z,101378.34
2023-02-11T03:18:18.817Z,101375.75
2023-02-11T03:23:35.330Z,101382.59
2023-02-11T03:28:44.295Z,101361.72
2023-02-11T03:34:10.072Z,101341.72
2023-02-11T03:39:19.623Z,101338.25
2023-02-11T03:44:25.295Z,101330.47
2023-02-11T03:49:28.226Z,101318.03
2023-02-11T03:54:30.949Z,101331.16
2023-02-11T03:59:32.567Z,101323.47
2023-02-11T04:04:34.166Z,101313.03
2023-02-11T04:09:36.838Z,101298.34
2023-02-11T04:14:38.870Z,101311.50
2023-02-11T04:19:40.652Z,101301.09
2023-02-11T04:24:44.012Z,101314.06
2023-02-11T04:29:45.654Z,101314.34
2023-02-11T04:34:47.522Z,101315.88
2023-02-11T04:39:49.176Z,101316.81
2023-02-11T04:44:50.849Z,101316.75
2023-02-11T04:49:52.479Z,101334.88
2023-02-11T04:54:54.110Z,101330.44
2023-02-11T04:59:55.745Z,101326.03
2023-02-11T05:04:57.342Z,101330.88
2023-02-11T05:09:58.951Z,101342.63
2023-02-11T05:15:00.622Z,101336.47
2023-02-11T05:20:02.325Z,101334.16
2023-02-11T05:25:04.206Z,101328.03
2023-02-11T05:30:07.022Z,101325.31
2023-02-11T05:35:09.671Z,101317.78
2023-02-11T05:40:11.782Z,101306.19
2023-02-11T05:45:13.483Z,101300.81
2023-02-11T05:50:15.246Z,101296.50
2023-02-11T05:55:16.878Z,101296.41
2023-02-11T06:00:18.989Z,101299.91
2023-02-11T06:05:20.711Z,101293.13
2023-02-11T06:10:22.503Z,101288.78
2023-02-11T06:15:24.093Z,101293.19
2023-02-11T06:20:25.701Z,101280.97
2023-02-11T06:25:27.415Z,101284.63
2023-02-11T06:30:29.087Z,101280.50
2023-02-11T06:35:30.911Z,101275.94
2023-02-11T06:40:32.544Z,101264.91
2023-02-11T06:45:34.325Z,101260.75
2023-02-11T06:50:36.012Z,101257.16
2023-02-11T06:55:37.636Z,101258.06
2023-02-11T07:00:39.270Z,101250.34
2023-02-11T07:05:43.849Z,101258.00
2023-02-11T07:10:45.528Z,101240.41
2023-02-11T07:15:47.210Z,101248.06
2023-02-11T07:20:48.841Z,101252.25
2023-02-11T07:25:50.865Z,101265.25
2023-02-11T07:30:53.183Z,101262.66
2023-02-11T07:35:54.890Z,101270.59
2023-02-11T07:41:11.777Z,101265.38
2023-02-11T07:46:19.716Z,101271.47
2023-02-11T07:51:29.833Z,101260.13
2023-02-11T07:56:32.864Z,101259.56
2023-02-11T08:01:34.709Z,101268.38
2023-02-11T08:06:41.310Z,101252.06
2023-02-11T08:11:43.642Z,101254.91
2023-02-11T08:16:45.378Z,101258.34
2023-02-11T08:21:47.466Z,101272.38
2023-02-11T08:26:49.670Z,101260.50
2023-02-11T08:31:51.570Z,101265.59
2023-02-11T08:36:53.989Z,101249.97
2023-02-11T08:41:56.878Z,101245.56
2023-02-11T08:46:58.571Z,101251.78
2023-02-11T08:52:04.203Z,101238.03
2023-02-11T08:57:05.818Z,101249.38
2023-02-11T09:02:12.592Z,101245.91
2023-02-11T09:07:14.389Z,101252.91
2023-02-11T09:12:16.041Z,101263.38
2023-02-11T09:17:17.796Z,101265.16
2023-02-11T09:22:19.432Z,101277.34
2023-02-11T09:27:21.081Z,101277.44
2023-02-11T09:32:22.673Z,101297.25
2023-02-11T09:37:24.285Z,101292.94
2023-02-11T09:42:39.015Z,101305.13
2023-02-11T09:47:59.753Z,101296.47
2023-02-11T09:53:17.937Z,101287.91
2023-02-11T09:58:26.387Z,101281.84
2023-02-11T10:03:49.795Z,101280.97
2023-02-11T10:09:01.715Z,101293.19
2023-02-11T10:14:41.050Z,101289.06
2023-02-11T10:20:16.488Z,101283.06
2023-02-11T10:25:26.539Z,101280.59
2023-02-11T10:30:37.249Z,101270.25
2023-02-11T10:35:39.048Z,101268.59
2023-02-11T10:40:40.783Z,101288.75
2023-02-11T10:45:45.344Z,101283.56
2023-02-11T10:50:47.039Z,101265.41
2023-02-11T10:55:54.742Z,101264.59
2023-02-11T11:00:59.663Z,101262.03
2023-02-11T11:06:04.301Z,101259.47
2023-02-11T11:11:09.030Z,101266.47
2023-02-11T11:16:13.893Z,101260.38
2023-02-11T11:21:22.628Z,101273.59
2023-02-11T11:26:29.581Z,101269.28
2023-02-11T11:31:45.275Z,101259.66
2023-02-11T11:36:48.011Z,101262.28
2023-02-11T11:41:52.702Z,101262.28
2023-02-11T11:47:22.658Z,101258.91
2023-02-11T11:52:40.590Z,101265.84
2023-02-11T11:57:42.307Z,101268.50
2023-02-11T12:03:22.187Z,101276.34
2023-02-11T12:08:45.287Z,101292.84
2023-02-11T12:14:06.830Z,101288.50
2023-02-11T12:19:25.538Z,101274.59
2023-02-11T12:25:26.319Z,101269.41
2023-02-11T12:30:54.588Z,101277.16
2023-02-11T12:36:20.686Z,101285.75
2023-02-11T12:41:45.598Z,101280.53
2023-02-11T12:47:03.900Z,101271.81
2023-02-11T12:52:18.396Z,101282.25
2023-02-11T12:57:26.549Z,101285.56
2023-02-11T13:02:58.989Z,101276.13
2023-02-11T13:08:21.064Z,101275.28
2023-02-11T13:13:28.508Z,101267.47
2023-02-11T13:18:44.089Z,101248.31
2023-02-11T13:23:48.774Z,101243.16
2023-02-11T13:29:13.588Z,101227.56
2023-02-11T13:34:54.218Z,101222.44
2023-02-11T13:40:21.285Z,101234.66
2023-02-11T13:45:22.756Z,101241.75
2023-02-11T13:50:27.097Z,101232.13
2023-02-11T13:55:30.516Z,101234.72
2023-02-11T14:00:35.179Z,101226.84
2023-02-11T14:05:55.572Z,101225.09
2023-02-11T14:11:03.282Z,101232.81
2023-02-11T14:16:13.622Z,101251.88
2023-02-11T14:21:32.467Z,101264.97
2023-02-11T14:26:40.144Z,101255.50
2023-02-11T14:32:04.671Z,101260.66
2023-02-11T14:37:50.464Z,101251.00
2023-02-11T14:42:54.817Z,101252.81
2023-02-11T14:48:08.353Z,101256.31
2023-02-11T14:53:17.050Z,101256.31
2023-02-11T14:58:23.077Z,101256.38
2023-02-11T15:03:41.168Z,101258.97
2023-02-11T15:09:03.579Z,101264.19
2023-02-11T15:14:23.268Z,101262.47
2023-02-11T15:19:33.061Z,101261.56
2023-02-11T15:24:35.943Z,101259.88
2023-02-11T15:29:40.925Z,101260.78
2023-02-11T15:34:44.213Z,101266.84
2023-02-11T15:39:46.097Z,101263.34
2023-02-11T15:44:56.359Z,101263.34
2023-02-11T15:49:58.974Z,101248.50
2023-02-11T15:55:02.850Z,101263.28
2023-02-11T16:00:07.175Z,101251.06
2023-02-11T16:05:35.837Z,101274.50
2023-02-11T16:10:38.858Z,101280.47
2023-02-11T16:15:51.023Z,101298.72
2023-02-11T16:20:53.682Z,101307.41
2023-02-11T16:26:21.552Z,101302.09
2023-02-11T16:31:23.468Z,101309.81
2023-02-11T16:36:25.558Z,101320.94
2023-02-11T16:41:27.334Z,101306.97
2023-02-11T16:46:30.684Z,101322.38
2023-02-11T16:51:32.297Z,101307.50
2023-02-11T16:56:33.955Z,101298.84
2023-02-11T17:01:38.397Z,101311.88
2023-02-11T17:06:40.041Z,101319.50
2023-02-11T17:11:41.692Z,101330.00
2023-02-11T17:16:45.362Z,101329.00
2023-02-11T17:21:49.571Z,101332.53
2023-02-11T17:26:51.317Z,101319.69
2023-02-11T17:31:53.801Z,101337.88
2023-02-11T17:36:55.819Z,101350.25
2023-02-11T17:41:57.768Z,101345.13
2023-02-11T17:46:59.438Z,101349.28
2023-02-11T17:52:01.199Z,101343.44
2023-02-11T17:57:02.874Z,101359.06
2023-02-11T18:02:05.210Z,101366.75
2023-02-11T18:07:07.455Z,101376.38
2023-02-11T18:12:10.883Z,101383.38
2023-02-11T18:17:15.753Z,101396.34
2023-02-11T18:22:17.990Z,101396.41
2023-02-11T18:27:20.707Z,101395.53
2023-02-11T18:32:22.422Z,101402.53
2023-02-11T18:37:24.211Z,101400.69
2023-02-11T18:42:25.989Z,101408.50
2023-02-11T18:47:27.889Z,101422.41
2023-02-11T18:52:31.264Z,101428.41
2023-02-11T18:57:32.938Z,101444.91
2023-02-11T19:02:34.572Z,101451.06
2023-02-11T19:07:36.224Z,101450.91
2023-02-11T19:12:39.243Z,101458.66
2023-02-11T19:17:40.913Z,101456.25
2023-02-11T19:22:42.758Z,101471.88
2023-02-11T19:27:44.385Z,101490.41
2023-02-11T19:32:46.110Z,101496.41
2023-02-11T19:37:47.808Z,101501.53
2023-02-11T19:42:49.508Z,101506.81
2023-02-11T19:47:55.253Z,101514.66
2023-02-11T19:52:56.922Z,101504.75
2023-02-11T19:57:58.592Z,101520.31
2023-02-11T20:03:00.308Z,101517.06
2023-02-11T20:08:02.032Z,101527.34
2023-02-11T20:13:03.975Z,101538.56
2023-02-11T20:18:05.756Z,101551.78
2023-02-11T20:23:07.424Z,101567.41
2023-02-11T20:28:09.121Z,101556.25
2023-02-11T20:33:20.541Z,101560.38
2023-02-11T20:38:22.264Z,101553.81
2023-02-11T20:43:23.909Z,101548.53
2023-02-11T20:48:25.549Z,101528.41
2023-02-11T20:53:27.204Z,101522.47
2023-02-11T20:58:28.966Z,101517.56
2023-02-11T21:03:30.730Z,101517.44
2023-02-11T21:08:32.443Z,101527.75
2023-02-11T21:13:34.325Z,101527.94
2023-02-11T21:18:36.652Z,101547.19
2023-02-11T21:23:39.820Z,101549.78
2023-02-11T21:28:41.710Z,101546.28
2023-02-11T21:33:43.474Z,101563.75
2023-02-11T21:38:45.218Z,101574.22
2023-02-11T21:43:46.900Z,101575.97
2023-02-11T21:48:49.087Z,101584.66
2023-02-11T21:53:59.612Z,101593.38
2023-02-11T21:59:01.465Z,101588.06
2023-02-11T22:04:04.005Z,101595.75
2023-02-11T22:09:08.246Z,101612.19
2023-02-11T22:14:09.984Z,101607.72
2023-02-11T22:19:11.736Z,101608.47
2023-02-11T22:24:13.581Z,101613.59
2023-02-11T22:29:15.216Z,101622.41
2023-02-11T22:34:16.910Z,101627.69
2023-02-11T22:39:18.633Z,101636.53
2023-02-11T22:44:21.528Z,101637.41
2023-02-11T22:49:23.324Z,101632.06
2023-02-11T22:54:25.590Z,101643.78
2023-02-11T22:59:27.278Z,101659.63
2023-02-11T23:04:29.004Z,101663.16
2023-02-11T23:09:30.677Z,101665.84
2023-02-11T23:14:32.408Z,101666.56
2023-02-11T23:19:34.073Z,101661.50
2023-02-11T23:24:37.023Z,101671.88
2023-02-11T23:29:38.695Z,101669.38
2023-02-11T23:34:40.439Z,101668.03
2023-02-11T23:39:42.109Z,101683.97
2023-02-11T23:44:43.752Z,101685.97
2023-02-11T23:49:45.432Z,101683.41
2023-02-11T23:54:48.232Z,101681.81
2023-02-11T23:59:50.458Z,101682.34
